Dublin, Texas
Current Conditions -  °F | °C
As of 11:55 AM on Tuesday 21 Oct 2014 (Local Time) from KSEP Reporting Station
Clear Clear  
Wind Chill: 23°   Ceiling: Unl
Heat Index: 23°   Visibility: 10mi
Dew Point: 15°   Wind: 0mph
Humidity: 59%   Direction: NA
Pressure: 30.14"   Gusts: NA
Location:  32.09°N, 98.34°W
Report Text: KSEP 211655Z AUTO 00000KT 10SM CLR 23/15 A3014 RMK AO2 T02330149
Loading
Personal Weather Stations






























Interactive Weather Map
Tropical Storm Tracking
New forecast layout! Learn more

10-Day Weather Forecast

Advertisements
Track Severe Weather on mobile